Terminal Aerodrome Forecast
Issued by NWS

Home | Current Version | Previous Version | Text Only | Print | Product List | Glossary On
Versions: 1 2 3 4 5 6 7 8 9 10 11 12 13 14
000
FTUS43 KMQT 272300
TAFSAW
TAF
KSAW 272338Z 2800/2824 29003KT P6SM SKC
     FM280500 22003KT P6SM BKN120
     FM281700 20007KT P6SM -SN OVC035
     FM281900 18007KT 6SM -SN OVC020
      AMD LTD TO CLD VIS AND WIND 2803/2811=

USA.gov is the U.S. government's official web portal to all federal, state and local government web resources and services.